sensor_id;sensor_type;location;lat;lon;timestamp;pressure;altitude;pressure_sealevel;temperature;humidity
51849;BME280;38952;51.090;-1.832;2023-03-04T00:00:36;101753.13;;;4.91;64.76
51849;BME280;38952;51.090;-1.832;2023-03-04T00:03:19;101779.31;;;5.05;64.82
51849;BME280;38952;51.090;-1.832;2023-03-04T00:06:02;101771.59;;;5.02;63.69
51849;BME280;38952;51.090;-1.832;2023-03-04T00:13:48;101748.34;;;4.93;63.18
51849;BME280;38952;51.090;-1.832;2023-03-04T00:16:28;101735.28;;;5.03;63.17
51849;BME280;38952;51.090;-1.832;2023-03-04T00:19:17;101751.91;;;5.22;62.79
51849;BME280;38952;51.090;-1.832;2023-03-04T00:21:42;101782.56;;;5.51;62.42
51849;BME280;38952;51.090;-1.832;2023-03-04T00:24:10;101770.47;;;5.53;62.52
51849;BME280;38952;51.090;-1.832;2023-03-04T00:26:38;101781.31;;;5.53;61.67
51849;BME280;38952;51.090;-1.832;2023-03-04T00:29:04;101776.34;;;5.57;62.17
51849;BME280;38952;51.090;-1.832;2023-03-04T00:31:29;101773.78;;;5.49;61.37
51849;BME280;38952;51.090;-1.832;2023-03-04T00:33:57;101799.34;;;5.61;62.12
51849;BME280;38952;51.090;-1.832;2023-03-04T00:36:25;101782.56;;;5.51;61.94
51849;BME280;38952;51.090;-1.832;2023-03-04T00:38:53;101788.81;;;5.51;61.90
51849;BME280;38952;51.090;-1.832;2023-03-04T00:41:18;101770.84;;;5.44;62.23
51849;BME280;38952;51.090;-1.832;2023-03-04T00:43:46;101757.63;;;5.34;61.86
51849;BME280;38952;51.090;-1.832;2023-03-04T00:46:12;101787.13;;;5.50;62.14
51849;BME280;38952;51.090;-1.832;2023-03-04T00:48:37;101777.53;;;5.48;62.25
51849;BME280;38952;51.090;-1.832;2023-03-04T00:51:03;101792.81;;;5.55;62.01
51849;BME280;38952;51.090;-1.832;2023-03-04T00:53:29;101793.41;;;5.51;62.26
51849;BME280;38952;51.090;-1.832;2023-03-04T00:55:54;101791.09;;;5.48;62.23
51849;BME280;38952;51.090;-1.832;2023-03-04T00:58:20;101778.38;;;5.48;62.23
51849;BME280;38952;51.090;-1.832;2023-03-04T01:00:45;101778.78;;;5.52;62.25
51849;BME280;38952;51.090;-1.832;2023-03-04T01:03:11;101778.44;;;5.55;62.29
51849;BME280;38952;51.090;-1.832;2023-03-04T01:05:36;101793.50;;;5.64;62.53
51849;BME280;38952;51.090;-1.832;2023-03-04T01:08:02;101776.56;;;5.62;62.06
51849;BME280;38952;51.090;-1.832;2023-03-04T01:10:29;101795.19;;;5.65;61.02
51849;BME280;38952;51.090;-1.832;2023-03-04T01:12:55;101777.16;;;5.51;61.34
51849;BME280;38952;51.090;-1.832;2023-03-04T01:15:21;101777.28;;;5.42;61.00
51849;BME280;38952;51.090;-1.832;2023-03-04T01:17:56;101780.81;;;5.36;61.94
51849;BME280;38952;51.090;-1.832;2023-03-04T01:20:22;101790.44;;;5.39;61.89
51849;BME280;38952;51.090;-1.832;2023-03-04T01:22:47;101783.25;;;5.31;61.29
51849;BME280;38952;51.090;-1.832;2023-03-04T01:25:13;101774.88;;;5.26;62.31
51849;BME280;38952;51.090;-1.832;2023-03-04T01:27:41;101769.19;;;5.21;62.35
51849;BME280;38952;51.090;-1.832;2023-03-04T01:30:07;101775.72;;;5.27;61.59
51849;BME280;38952;51.090;-1.832;2023-03-04T01:32:33;101786.66;;;5.40;62.24
51849;BME280;38952;51.090;-1.832;2023-03-04T01:34:58;101770.34;;;5.33;61.63
51849;BME280;38952;51.090;-1.832;2023-03-04T01:37:24;101775.56;;;5.35;62.60
51849;BME280;38952;51.090;-1.832;2023-03-04T01:39:50;101777.53;;;5.48;62.63
51849;BME280;38952;51.090;-1.832;2023-03-04T01:42:25;101774.16;;;5.46;62.51
51849;BME280;38952;51.090;-1.832;2023-03-04T01:44:52;101761.22;;;5.41;62.33
51849;BME280;38952;51.090;-1.832;2023-03-04T01:47:18;101776.28;;;5.50;62.41
51849;BME280;38952;51.090;-1.832;2023-03-04T01:49:46;101768.81;;;5.52;62.44
51849;BME280;38952;51.090;-1.832;2023-03-04T01:52:15;101759.66;;;5.60;62.01
51849;BME280;38952;51.090;-1.832;2023-03-04T01:54:40;101750.88;;;5.58;61.89
51849;BME280;38952;51.090;-1.832;2023-03-04T01:57:33;101756.53;;;5.63;61.67
51849;BME280;38952;51.090;-1.832;2023-03-04T02:00:22;101755.91;;;5.61;61.90
51849;BME280;38952;51.090;-1.832;2023-03-04T02:02:54;101760.06;;;5.57;61.20
51849;BME280;38952;51.090;-1.832;2023-03-04T02:05:21;101745.88;;;5.55;62.45
51849;BME280;38952;51.090;-1.832;2023-03-04T02:07:48;101746.63;;;5.49;61.79
51849;BME280;38952;51.090;-1.832;2023-03-04T02:10:17;101744.19;;;5.54;61.68
51849;BME280;38952;51.090;-1.832;2023-03-04T02:12:45;101738.50;;;5.49;62.36
51849;BME280;38952;51.090;-1.832;2023-03-04T02:15:11;101747.91;;;5.53;61.43
51849;BME280;38952;51.090;-1.832;2023-03-04T02:17:36;101729.88;;;5.38;62.50
51849;BME280;38952;51.090;-1.832;2023-03-04T02:22:32;101733.19;;;5.34;61.73
51849;BME280;38952;51.090;-1.832;2023-03-04T02:25:06;101720.63;;;5.26;62.16
51849;BME280;38952;51.090;-1.832;2023-03-04T02:27:35;101734.03;;;5.34;62.56
51849;BME280;38952;51.090;-1.832;2023-03-04T02:30:01;101729.00;;;5.31;62.53
51849;BME280;38952;51.090;-1.832;2023-03-04T02:32:28;101739.09;;;5.37;62.72
51849;BME280;38952;51.090;-1.832;2023-03-04T02:34:55;101722.31;;;5.27;62.26
51849;BME280;38952;51.090;-1.832;2023-03-04T02:37:20;101725.88;;;5.34;61.97
51849;BME280;38952;51.090;-1.832;2023-03-04T02:39:47;101727.34;;;5.30;62.94
51849;BME280;38952;51.090;-1.832;2023-03-04T02:42:34;101739.09;;;5.37;62.30
51849;BME280;38952;51.090;-1.832;2023-03-04T02:45:00;101695.69;;;5.09;62.26
51849;BME280;38952;51.090;-1.832;2023-03-04T02:47:28;101741.13;;;5.35;62.97
51849;BME280;38952;51.090;-1.832;2023-03-04T02:49:56;101726.47;;;5.23;62.81
51849;BME280;38952;51.090;-1.832;2023-03-04T02:52:24;101738.16;;;5.23;62.81
51849;BME280;38952;51.090;-1.832;2023-03-04T02:54:55;101743.56;;;5.23;62.41
51849;BME280;38952;51.090;-1.832;2023-03-04T02:57:20;101736.44;;;5.16;63.25
51849;BME280;38952;51.090;-1.832;2023-03-04T02:59:45;101734.75;;;5.15;62.84
51849;BME280;38952;51.090;-1.832;2023-03-04T03:02:11;101730.13;;;5.09;63.07
51849;BME280;38952;51.090;-1.832;2023-03-04T03:04:38;101741.44;;;5.19;63.05
51849;BME280;38952;51.090;-1.832;2023-03-04T03:07:05;101734.81;;;5.21;63.00
51849;BME280;38952;51.090;-1.832;2023-03-04T03:09:30;101737.75;;;5.27;62.83
51849;BME280;38952;51.090;-1.832;2023-03-04T03:11:56;101738.81;;;5.32;63.37
51849;BME280;38952;51.090;-1.832;2023-03-04T03:14:21;101740.25;;;5.28;62.59
51849;BME280;38952;51.090;-1.832;2023-03-04T03:16:47;101736.50;;;5.29;62.90
51849;BME280;38952;51.090;-1.832;2023-03-04T03:19:12;101726.47;;;5.23;62.83
51849;BME280;38952;51.090;-1.832;2023-03-04T03:21:40;101725.25;;;5.32;62.44
51849;BME280;38952;51.090;-1.832;2023-03-04T03:24:05;101734.28;;;5.39;63.13
51849;BME280;38952;51.090;-1.832;2023-03-04T03:26:31;101713.53;;;5.25;63.54
51849;BME280;38952;51.090;-1.832;2023-03-04T03:28:56;101726.28;;;5.31;62.96
51849;BME280;38952;51.090;-1.832;2023-03-04T03:31:24;101716.91;;;5.27;63.24
51849;BME280;38952;51.090;-1.832;2023-03-04T03:33:50;101732.59;;;5.38;62.97
51849;BME280;38952;51.090;-1.832;2023-03-04T03:36:15;101732.59;;;5.38;62.74
51849;BME280;38952;51.090;-1.832;2023-03-04T03:38:41;101734.03;;;5.34;62.83
51849;BME280;38952;51.090;-1.832;2023-03-04T03:41:06;101731.50;;;5.33;63.21
51849;BME280;38952;51.090;-1.832;2023-03-04T03:43:32;101736.38;;;5.37;63.02
51849;BME280;38952;51.090;-1.832;2023-03-04T03:45:58;101738.03;;;5.38;62.65
51849;BME280;38952;51.090;-1.832;2023-03-04T03:48:23;101728.19;;;5.31;63.30
51849;BME280;38952;51.090;-1.832;2023-03-04T03:50:48;101736.38;;;5.37;62.87
51849;BME280;38952;51.090;-1.832;2023-03-04T03:53:14;101728.66;;;5.41;63.22
51849;BME280;38952;51.090;-1.832;2023-03-04T03:55:39;101729.09;;;5.45;62.79
51849;BME280;38952;51.090;-1.832;2023-03-04T03:58:05;101738.06;;;5.45;62.66
51849;BME280;38952;51.090;-1.832;2023-03-04T04:00:30;101720.31;;;5.42;62.18
51849;BME280;38952;51.090;-1.832;2023-03-04T04:02:57;101695.19;;;5.27;62.29
51849;BME280;38952;51.090;-1.832;2023-03-04T04:05:23;101732.03;;;5.50;62.47
51849;BME280;38952;51.090;-1.832;2023-03-04T04:07:49;101721.59;;;5.47;62.59
51849;BME280;38952;51.090;-1.832;2023-03-04T04:10:14;101732.66;;;5.45;63.11
51849;BME280;38952;51.090;-1.832;2023-03-04T04:12:40;101731.13;;;5.36;62.08
51849;BME280;38952;51.090;-1.832;2023-03-04T04:15:06;101720.19;;;5.22;63.18
51849;BME280;38952;51.090;-1.832;2023-03-04T04:17:31;101724.78;;;5.22;62.49
51849;BME280;38952;51.090;-1.832;2023-03-04T04:19:57;101740.44;;;5.20;63.49
51849;BME280;38952;51.090;-1.832;2023-03-04T04:22:22;101745.19;;;5.18;63.02
51849;BME280;38952;51.090;-1.832;2023-03-04T04:24:48;101754.00;;;5.20;63.12
51849;BME280;38952;51.090;-1.832;2023-03-04T04:27:13;101733.31;;;5.19;63.22
51849;BME280;38952;51.090;-1.832;2023-03-04T04:29:39;101741.31;;;5.27;64.04
51849;BME280;38952;51.090;-1.832;2023-03-04T04:32:05;101746.56;;;5.35;63.44
51849;BME280;38952;51.090;-1.832;2023-03-04T04:34:30;101746.34;;;5.30;63.43
51849;BME280;38952;51.090;-1.832;2023-03-04T04:36:58;101741.06;;;5.22;63.01
51849;BME280;38952;51.090;-1.832;2023-03-04T04:39:24;101758.63;;;5.26;62.97
51849;BME280;38952;51.090;-1.832;2023-03-04T04:41:50;101745.19;;;5.18;63.43
51849;BME280;38952;51.090;-1.832;2023-03-04T04:44:15;101746.28;;;5.23;63.93
51849;BME280;38952;51.090;-1.832;2023-03-04T04:46:41;101737.66;;;5.13;63.68
51849;BME280;38952;51.090;-1.832;2023-03-04T04:49:07;101731.28;;;4.99;64.03
51849;BME280;38952;51.090;-1.832;2023-03-04T04:51:34;101744.06;;;5.05;63.45
51849;BME280;38952;51.090;-1.832;2023-03-04T04:54:01;101751.34;;;5.05;63.29
51849;BME280;38952;51.090;-1.832;2023-03-04T04:56:27;101760.19;;;5.14;63.70
51849;BME280;38952;51.090;-1.832;2023-03-04T04:58:57;101757.06;;;5.17;63.82
51849;BME280;38952;51.090;-1.832;2023-03-04T05:01:24;101756.91;;;5.18;63.50
51849;BME280;38952;51.090;-1.832;2023-03-04T05:03:50;101750.59;;;5.11;64.49
51849;BME280;38952;51.090;-1.832;2023-03-04T05:06:18;101748.50;;;5.13;64.17
51849;BME280;38952;51.090;-1.832;2023-03-04T05:08:45;101746.22;;;5.17;64.13
51849;BME280;38952;51.090;-1.832;2023-03-04T05:11:10;101761.72;;;5.23;63.75
51849;BME280;38952;51.090;-1.832;2023-03-04T05:13:36;101754.34;;;5.17;63.74
51849;BME280;38952;51.090;-1.832;2023-03-04T05:16:02;101757.72;;;5.19;63.67
51849;BME280;38952;51.090;-1.832;2023-03-04T05:18:27;101770.63;;;5.17;63.56
51849;BME280;38952;51.090;-1.832;2023-03-04T05:20:57;101752.59;;;5.02;63.92
51849;BME280;38952;51.090;-1.832;2023-03-04T05:23:25;101765.09;;;5.03;63.82
51849;BME280;38952;51.090;-1.832;2023-03-04T05:25:51;101757.97;;;4.96;64.33
51849;BME280;38952;51.090;-1.832;2023-03-04T05:28:18;101767.59;;;4.98;65.01
51849;BME280;38952;51.090;-1.832;2023-03-04T05:30:44;101766.09;;;4.96;64.87
51849;BME280;38952;51.090;-1.832;2023-03-04T05:33:12;101767.38;;;5.00;64.81
51849;BME280;38952;51.090;-1.832;2023-03-04T05:35:39;101771.19;;;5.05;64.23
51849;BME280;38952;51.090;-1.832;2023-03-04T05:38:06;101766.16;;;5.02;65.12
51849;BME280;38952;51.090;-1.832;2023-03-04T05:40:32;101767.63;;;5.05;63.99
51849;BME280;38952;51.090;-1.832;2023-03-04T05:42:58;101765.50;;;5.00;64.94
51849;BME280;38952;51.090;-1.832;2023-03-04T05:45:24;101754.97;;;4.90;64.39
51849;BME280;38952;51.090;-1.832;2023-03-04T05:47:51;101757.13;;;4.95;65.20
51849;BME280;38952;51.090;-1.832;2023-03-04T05:50:16;101758.78;;;4.96;64.20
51849;BME280;38952;51.090;-1.832;2023-03-04T05:52:42;101755.44;;;4.94;65.06
51849;BME280;38952;51.090;-1.832;2023-03-04T05:55:08;101753.81;;;5.00;64.73
51849;BME280;38952;51.090;-1.832;2023-03-04T05:57:33;101756.97;;;5.03;64.77
51849;BME280;38952;51.090;-1.832;2023-03-04T05:59:59;101767.63;;;5.05;64.59
51849;BME280;38952;51.090;-1.832;2023-03-04T06:02:24;101767.00;;;5.03;64.51
51849;BME280;38952;51.090;-1.832;2023-03-04T06:04:50;101761.75;;;5.01;64.61
51849;BME280;38952;51.090;-1.832;2023-03-04T06:07:15;101767.19;;;5.01;64.26
51849;BME280;38952;51.090;-1.832;2023-03-04T06:09:41;101768.41;;;4.99;64.24
51849;BME280;38952;51.090;-1.832;2023-03-04T06:12:09;101772.16;;;4.98;64.01
51849;BME280;38952;51.090;-1.832;2023-03-04T06:14:35;101759.53;;;4.83;64.75
51849;BME280;38952;51.090;-1.832;2023-03-04T06:17:00;101745.28;;;4.75;64.80
51849;BME280;38952;51.090;-1.832;2023-03-04T06:19:29;101759.06;;;5.01;64.76
51849;BME280;38952;51.090;-1.832;2023-03-04T06:21:54;101770.13;;;5.06;64.33
51849;BME280;38952;51.090;-1.832;2023-03-04T06:24:20;101768.72;;;5.11;64.16
51849;BME280;38952;51.090;-1.832;2023-03-04T06:26:48;101769.69;;;5.03;64.21
51849;BME280;38952;51.090;-1.832;2023-03-04T06:29:16;101763.69;;;5.07;64.00
51849;BME280;38952;51.090;-1.832;2023-03-04T06:31:41;101781.09;;;5.20;64.27
51849;BME280;38952;51.090;-1.832;2023-03-04T06:34:07;101766.72;;;4.98;64.05
51849;BME280;38952;51.090;-1.832;2023-03-04T06:36:36;101765.19;;;4.88;64.15
51849;BME280;38952;51.090;-1.832;2023-03-04T06:39:03;101788.09;;;5.07;64.50
51849;BME280;38952;51.090;-1.832;2023-03-04T06:41:32;101771.19;;;5.05;64.27
51849;BME280;38952;51.090;-1.832;2023-03-04T06:44:00;101797.50;;;5.12;64.04
51849;BME280;38952;51.090;-1.832;2023-03-04T06:46:26;101775.00;;;4.89;64.42
51849;BME280;38952;51.090;-1.832;2023-03-04T06:48:51;101779.84;;;4.94;64.62
51849;BME280;38952;51.090;-1.832;2023-03-04T06:51:18;101795.72;;;4.97;64.74
51849;BME280;38952;51.090;-1.832;2023-03-04T06:53:43;101784.38;;;4.87;64.53
51849;BME280;38952;51.090;-1.832;2023-03-04T06:56:11;101795.72;;;4.97;63.97
51849;BME280;38952;51.090;-1.832;2023-03-04T06:58:37;101802.56;;;4.93;64.72
51849;BME280;38952;51.090;-1.832;2023-03-04T07:01:20;101794.19;;;4.88;64.71
51849;BME280;38952;51.090;-1.832;2023-03-04T07:03:48;101803.06;;;5.03;64.79
51849;BME280;38952;51.090;-1.832;2023-03-04T07:06:16;101810.44;;;5.10;63.84
51849;BME280;38952;51.090;-1.832;2023-03-04T07:08:42;101805.56;;;5.05;63.76
51849;BME280;38952;51.090;-1.832;2023-03-04T07:11:11;101809.34;;;5.04;63.70
51849;BME280;38952;51.090;-1.832;2023-03-04T07:13:36;101812.88;;;5.04;64.56
51849;BME280;38952;51.090;-1.832;2023-03-04T07:16:10;101805.06;;;4.95;64.37
51849;BME280;38952;51.090;-1.832;2023-03-04T07:18:39;101818.69;;;5.01;63.74
51849;BME280;38952;51.090;-1.832;2023-03-04T07:21:06;101817.00;;;5.00;63.41
51849;BME280;38952;51.090;-1.832;2023-03-04T07:23:32;101810.97;;;4.98;64.21
51849;BME280;38952;51.090;-1.832;2023-03-04T07:25:58;101800.50;;;4.95;63.80
51849;BME280;38952;51.090;-1.832;2023-03-04T07:28:23;101800.94;;;4.99;63.79
51849;BME280;38952;51.090;-1.832;2023-03-04T07:30:49;101793.78;;;4.91;63.92
51849;BME280;38952;51.090;-1.832;2023-03-04T07:33:17;101814.19;;;5.09;63.47
51849;BME280;38952;51.090;-1.832;2023-03-04T07:35:42;101816.88;;;5.09;63.36
51849;BME280;38952;51.090;-1.832;2023-03-04T07:38:08;101811.19;;;5.03;63.99
51849;BME280;38952;51.090;-1.832;2023-03-04T07:40:36;101819.41;;;5.10;64.02
51849;BME280;38952;51.090;-1.832;2023-03-04T07:43:02;101818.19;;;5.13;64.36
51849;BME280;38952;51.090;-1.832;2023-03-04T07:45:28;101817.13;;;5.14;63.35
51849;BME280;38952;51.090;-1.832;2023-03-04T07:47:53;101820.31;;;5.17;63.52
51849;BME280;38952;51.090;-1.832;2023-03-04T07:50:19;101805.03;;;5.10;63.60
51849;BME280;38952;51.090;-1.832;2023-03-04T07:52:46;101819.06;;;5.20;63.32
51849;BME280;38952;51.090;-1.832;2023-03-04T07:55:15;101823.91;;;5.24;64.05
51849;BME280;38952;51.090;-1.832;2023-03-04T07:57:42;101823.31;;;5.29;63.75
51849;BME280;38952;51.090;-1.832;2023-03-04T08:00:10;101826.25;;;5.34;62.93
51849;BME280;38952;51.090;-1.832;2023-03-04T08:02:36;101817.50;;;5.32;63.30
51849;BME280;38952;51.090;-1.832;2023-03-04T08:05:02;101824.22;;;5.36;62.91
51849;BME280;38952;51.090;-1.832;2023-03-04T08:07:27;101828.84;;;5.42;63.53
51849;BME280;38952;51.090;-1.832;2023-03-04T08:09:52;101817.97;;;5.42;63.64
51849;BME280;38952;51.090;-1.832;2023-03-04T08:12:18;101823.28;;;5.51;62.62
51849;BME280;38952;51.090;-1.832;2023-03-04T08:14:44;101829.31;;;5.53;62.96
51849;BME280;38952;51.090;-1.832;2023-03-04T08:17:22;101836.03;;;5.57;62.36
51849;BME280;38952;51.090;-1.832;2023-03-04T08:20:08;101838.28;;;5.53;63.07
51849;BME280;38952;51.090;-1.832;2023-03-04T08:22:41;101829.88;;;5.41;62.62
51849;BME280;38952;51.090;-1.832;2023-03-04T08:25:07;101823.94;;;5.31;62.41
51849;BME280;38952;51.090;-1.832;2023-03-04T08:27:32;101829.53;;;5.23;62.82
51849;BME280;38952;51.090;-1.832;2023-03-04T08:30:00;101833.69;;;5.25;62.73
51849;BME280;38952;51.090;-1.832;2023-03-04T08:32:26;101830.56;;;5.22;62.27
51849;BME280;38952;51.090;-1.832;2023-03-04T08:34:51;101833.25;;;5.22;63.38
51849;BME280;38952;51.090;-1.832;2023-03-04T08:37:19;101841.91;;;5.32;62.65
51849;BME280;38952;51.090;-1.832;2023-03-04T08:39:44;101840.22;;;5.31;63.12
51849;BME280;38952;51.090;-1.832;2023-03-04T08:42:10;101837.97;;;5.35;62.62
51849;BME280;38952;51.090;-1.832;2023-03-04T08:44:38;101825.22;;;5.35;62.77
51849;BME280;38952;51.090;-1.832;2023-03-04T08:47:03;101840.97;;;5.47;63.29
51849;BME280;38952;51.090;-1.832;2023-03-04T08:49:36;101833.84;;;5.39;62.49
51849;BME280;38952;51.090;-1.832;2023-03-04T08:52:13;101831.06;;;5.32;62.65
51849;BME280;38952;51.090;-1.832;2023-03-04T08:54:41;101848.84;;;5.41;62.35
51849;BME280;38952;51.090;-1.832;2023-03-04T08:57:07;101850.81;;;5.48;61.64
51849;BME280;38952;51.090;-1.832;2023-03-04T08:59:32;101852.06;;;5.52;62.01
51849;BME280;38952;51.090;-1.832;2023-03-04T09:01:58;101849.34;;;5.52;62.12
51849;BME280;38952;51.090;-1.832;2023-03-04T09:04:25;101854.84;;;5.58;61.67
51849;BME280;38952;51.090;-1.832;2023-03-04T09:06:51;101845.00;;;5.57;61.48
51849;BME280;38952;51.090;-1.832;2023-03-04T09:09:17;101842.50;;;5.56;60.99
51849;BME280;38952;51.090;-1.832;2023-03-04T09:11:46;101840.25;;;5.59;61.03
51849;BME280;38952;51.090;-1.832;2023-03-04T09:14:11;101858.72;;;5.77;61.19
51849;BME280;38952;51.090;-1.832;2023-03-04T09:16:39;101835.91;;;5.72;60.69
51849;BME280;38952;51.090;-1.832;2023-03-04T09:19:12;101858.78;;;5.84;60.55
51849;BME280;38952;51.090;-1.832;2023-03-04T09:21:40;101865.91;;;5.92;61.27
51849;BME280;38952;51.090;-1.832;2023-03-04T09:24:13;101859.06;;;5.96;60.59
51849;BME280;38952;51.090;-1.832;2023-03-04T09:26:39;101854.22;;;5.91;60.20
51849;BME280;38952;51.090;-1.832;2023-03-04T09:29:04;101849.63;;;5.92;60.17
51849;BME280;38952;51.090;-1.832;2023-03-04T09:31:33;101847.09;;;5.90;60.14
51849;BME280;38952;51.090;-1.832;2023-03-04T09:33:59;101843.41;;;5.98;60.68
51849;BME280;38952;51.090;-1.832;2023-03-04T09:36:25;101858.13;;;6.10;60.21
51849;BME280;38952;51.090;-1.832;2023-03-04T09:38:50;101850.19;;;6.16;59.46
51849;BME280;38952;51.090;-1.832;2023-03-04T09:41:25;101850.59;;;6.13;59.08
51849;BME280;38952;51.090;-1.832;2023-03-04T09:43:53;101846.44;;;6.17;59.65
51849;BME280;38952;51.090;-1.832;2023-03-04T09:46:29;101848.97;;;6.25;59.11
51849;BME280;38952;51.090;-1.832;2023-03-04T09:48:57;101843.53;;;6.18;59.21
51849;BME280;38952;51.090;-1.832;2023-03-04T09:54:12;101856.50;;;6.23;59.17
51849;BME280;38952;51.090;-1.832;2023-03-04T09:56:45;101847.72;;;6.21;58.30
51849;BME280;38952;51.090;-1.832;2023-03-04T09:59:23;101864.09;;;6.41;58.16
51849;BME280;38952;51.090;-1.832;2023-03-04T10:04:40;101861.19;;;6.49;59.12
51849;BME280;38952;51.090;-1.832;2023-03-04T10:07:17;101857.50;;;6.63;59.24
51849;BME280;38952;51.090;-1.832;2023-03-04T10:12:33;101853.34;;;6.81;57.78
51849;BME280;38952;51.090;-1.832;2023-03-04T10:15:20;101865.06;;;6.88;58.21
51849;BME280;38952;51.090;-1.832;2023-03-04T10:17:56;101844.97;;;6.69;57.96
51849;BME280;38952;51.090;-1.832;2023-03-04T10:20:26;101849.56;;;6.75;57.50
51849;BME280;38952;51.090;-1.832;2023-03-04T10:23:01;101845.41;;;6.79;57.18
51849;BME280;38952;51.090;-1.832;2023-03-04T10:25:33;101846.25;;;6.87;57.39
51849;BME280;38952;51.090;-1.832;2023-03-04T10:28:14;101856.72;;;6.96;57.73
51849;BME280;38952;51.090;-1.832;2023-03-04T10:30:58;101852.97;;;7.04;56.90
51849;BME280;38952;51.090;-1.832;2023-03-04T10:33:28;101845.00;;;7.09;57.17
51849;BME280;38952;51.090;-1.832;2023-03-04T10:36:03;101857.38;;;7.19;56.95
51849;BME280;38952;51.090;-1.832;2023-03-04T10:38:41;101836.22;;;7.07;56.49
51849;BME280;38952;51.090;-1.832;2023-03-04T10:41:18;101828.25;;;7.12;56.22
51849;BME280;38952;51.090;-1.832;2023-03-04T10:44:34;101854.22;;;7.28;56.53
51849;BME280;38952;51.090;-1.832;2023-03-04T10:46:38;101836.88;;;7.36;56.80
51849;BME280;38952;51.090;-1.832;2023-03-04T10:49:11;101837.69;;;7.37;56.06
51849;BME280;38952;51.090;-1.832;2023-03-04T10:51:46;101839.97;;;7.53;56.33
51849;BME280;38952;51.090;-1.832;2023-03-04T10:54:26;101848.59;;;7.57;55.98
51849;BME280;38952;51.090;-1.832;2023-03-04T10:57:03;101844.00;;;7.50;55.03
51849;BME280;38952;51.090;-1.832;2023-03-04T11:02:34;101820.75;;;7.41;56.12
51849;BME280;38952;51.090;-1.832;2023-03-04T11:05:23;101834.75;;;7.51;55.25
51849;BME280;38952;51.090;-1.832;2023-03-04T11:07:51;101832.25;;;7.50;55.23
51849;BME280;38952;51.090;-1.832;2023-03-04T11:10:25;101835.41;;;7.54;55.15
51849;BME280;38952;51.090;-1.832;2023-03-04T11:13:07;101839.59;;;7.49;55.75
51849;BME280;38952;51.090;-1.832;2023-03-04T11:16:22;101829.53;;;7.57;55.10
51849;BME280;38952;51.090;-1.832;2023-03-04T11:18:43;101809.41;;;7.64;55.44
51849;BME280;38952;51.090;-1.832;2023-03-04T11:21:22;101816.66;;;7.84;55.60
51849;BME280;38952;51.090;-1.832;2023-03-04T11:24:14;101826.53;;;7.92;54.37
51849;BME280;38952;51.090;-1.832;2023-03-04T11:27:03;101824.41;;;7.94;54.22
51849;BME280;38952;51.090;-1.832;2023-03-04T11:29:38;101804.75;;;7.85;54.13
51849;BME280;38952;51.090;-1.832;2023-03-04T11:32:21;101819.19;;;7.85;53.63
51849;BME280;38952;51.090;-1.832;2023-03-04T11:34:51;101808.53;;;7.77;53.87
51849;BME280;38952;51.090;-1.832;2023-03-04T11:37:35;101812.69;;;7.86;53.74
51849;BME280;38952;51.090;-1.832;2023-03-04T11:40:38;101811.63;;;7.94;54.18
51849;BME280;38952;51.090;-1.832;2023-03-04T11:48:43;101803.13;;;8.23;53.23
51849;BME280;38952;51.090;-1.832;2023-03-04T12:03:49;101792.22;;;8.68;52.46
51849;BME280;38952;51.090;-1.832;2023-03-04T12:09:44;101785.38;;;8.59;52.50
51849;BME280;38952;51.090;-1.832;2023-03-04T12:26:51;101755.53;;;8.64;52.03
51849;BME280;38952;51.090;-1.832;2023-03-04T12:29:40;101763.72;;;8.64;51.49
51849;BME280;38952;51.090;-1.832;2023-03-04T12:45:39;101749.81;;;9.22;51.25
51849;BME280;38952;51.090;-1.832;2023-03-04T12:50:50;101734.28;;;9.23;50.16
51849;BME280;38952;51.090;-1.832;2023-03-04T12:56:45;101735.38;;;9.40;50.55
51849;BME280;38952;51.090;-1.832;2023-03-04T12:59:16;101717.69;;;9.43;50.02
51849;BME280;38952;51.090;-1.832;2023-03-04T13:07:16;101722.50;;;9.22;49.73
51849;BME280;38952;51.090;-1.832;2023-03-04T13:09:55;101702.50;;;9.10;49.80
51849;BME280;38952;51.090;-1.832;2023-03-04T13:12:24;101714.47;;;9.09;49.40
51849;BME280;38952;51.090;-1.832;2023-03-04T13:17:43;101703.50;;;8.90;50.00
51849;BME280;38952;51.090;-1.832;2023-03-04T13:20:31;101724.91;;;8.94;49.83
51849;BME280;38952;51.090;-1.832;2023-03-04T13:35:57;101700.66;;;9.04;49.76
51849;BME280;38952;51.090;-1.832;2023-03-04T13:43:50;101710.84;;;8.90;50.10
51849;BME280;38952;51.090;-1.832;2023-03-04T13:57:46;101687.25;;;9.21;48.99
51849;BME280;38952;51.090;-1.832;2023-03-04T14:00:13;101662.84;;;9.07;48.87
51849;BME280;38952;51.090;-1.832;2023-03-04T14:02:39;101656.56;;;9.07;49.29
51849;BME280;38952;51.090;-1.832;2023-03-04T14:05:10;101676.28;;;9.28;48.86
51849;BME280;38952;51.090;-1.832;2023-03-04T14:07:36;101661.25;;;9.18;49.38
51849;BME280;38952;51.090;-1.832;2023-03-04T14:12:37;101662.38;;;9.11;48.96
51849;BME280;38952;51.090;-1.832;2023-03-04T14:17:48;101658.66;;;8.86;49.24
51849;BME280;38952;51.090;-1.832;2023-03-04T14:22:54;101646.66;;;8.69;49.88
51849;BME280;38952;51.090;-1.832;2023-03-04T14:25:25;101652.91;;;8.69;49.63
51849;BME280;38952;51.090;-1.832;2023-03-04T14:28:20;101642.84;;;8.70;50.02
51849;BME280;38952;51.090;-1.832;2023-03-04T14:31:15;101643.25;;;8.73;49.69
51849;BME280;38952;51.090;-1.832;2023-03-04T14:33:52;101643.63;;;8.77;50.09
51849;BME280;38952;51.090;-1.832;2023-03-04T14:36:23;101633.59;;;8.71;49.69
51849;BME280;38952;51.090;-1.832;2023-03-04T14:38:56;101645.13;;;8.73;50.14
51849;BME280;38952;51.090;-1.832;2023-03-04T14:41:31;101636.16;;;8.66;50.25
51849;BME280;38952;51.090;-1.832;2023-03-04T14:46:30;101634.97;;;8.62;50.48
51849;BME280;38952;51.090;-1.832;2023-03-04T14:48:58;101612.03;;;8.44;50.45
51849;BME280;38952;51.090;-1.832;2023-03-04T14:54:36;101628.66;;;8.61;50.84
51849;BME280;38952;51.090;-1.832;2023-03-04T14:57:25;101629.56;;;8.55;50.17
51849;BME280;38952;51.090;-1.832;2023-03-04T14:59:54;101607.41;;;8.45;50.18
51849;BME280;38952;51.090;-1.832;2023-03-04T15:02:23;101617.16;;;8.59;50.39
51849;BME280;38952;51.090;-1.832;2023-03-04T15:04:57;101593.56;;;8.46;50.20
51849;BME280;38952;51.090;-1.832;2023-03-04T15:07:31;101611.16;;;8.50;50.01